createdAt,value
2018-05-23T00:00:42.763Z,18.80
2018-05-23T00:03:11.080Z,18.90
2018-05-23T00:05:38.626Z,18.70
2018-05-23T00:08:06.198Z,18.80
2018-05-23T00:10:33.711Z,18.80
2018-05-23T00:13:01.282Z,18.90
2018-05-23T00:15:29.735Z,18.80
2018-05-23T00:17:57.315Z,18.70
2018-05-23T00:20:24.846Z,18.80
2018-05-23T00:22:52.424Z,18.80
2018-05-23T00:25:19.948Z,18.60
2018-05-23T00:27:47.857Z,18.50
2018-05-23T00:30:15.412Z,18.50
2018-05-23T00:32:42.954Z,18.40
2018-05-23T00:35:10.525Z,18.50
2018-05-23T00:37:38.081Z,18.40
2018-05-23T00:40:05.648Z,18.40
2018-05-23T00:42:33.200Z,18.40
2018-05-23T00:45:00.787Z,18.40
2018-05-23T00:47:28.310Z,18.30
2018-05-23T00:49:55.843Z,18.20
2018-05-23T00:52:23.400Z,18.20
2018-05-23T00:55:02.738Z,18.20
2018-05-23T00:57:31.317Z,18.10
2018-05-23T00:59:58.889Z,18.00
2018-05-23T01:02:26.458Z,18.00
2018-05-23T01:04:54.047Z,17.90
2018-05-23T01:07:21.705Z,17.80
2018-05-23T01:09:49.233Z,17.80
2018-05-23T01:12:16.788Z,17.80
2018-05-23T01:14:44.317Z,17.80
2018-05-23T01:17:12.924Z,17.80
2018-05-23T01:19:40.464Z,17.80
2018-05-23T01:22:08.796Z,17.80
2018-05-23T01:24:36.362Z,17.70
2018-05-23T01:27:04.440Z,17.80
2018-05-23T01:29:32.012Z,17.80
2018-05-23T01:31:59.598Z,17.70
2018-05-23T01:34:27.916Z,17.80
2018-05-23T01:36:55.440Z,17.70
2018-05-23T01:39:23.082Z,17.70
2018-05-23T01:41:50.615Z,17.70
2018-05-23T01:44:18.143Z,17.70
2018-05-23T01:46:46.552Z,17.70
2018-05-23T01:49:25.994Z,17.70
2018-05-23T01:51:53.605Z,17.60
2018-05-23T01:54:21.911Z,17.50
2018-05-23T01:56:49.503Z,17.40
2018-05-23T01:59:17.033Z,17.50
2018-05-23T02:01:44.619Z,17.50
2018-05-23T02:04:12.148Z,17.50
2018-05-23T02:06:39.732Z,17.40
2018-05-23T02:09:07.273Z,17.40
2018-05-23T02:11:34.836Z,17.30
2018-05-23T02:14:05.843Z,17.30
2018-05-23T02:16:34.322Z,17.30
2018-05-23T02:19:05.139Z,17.20
2018-05-23T02:21:32.677Z,17.20
2018-05-23T02:24:00.236Z,17.20
2018-05-23T02:26:27.816Z,17.10
2018-05-23T02:28:56.324Z,17.20
2018-05-23T02:31:26.542Z,17.20
2018-05-23T02:33:54.116Z,17.20
2018-05-23T02:36:21.695Z,17.20
2018-05-23T02:38:49.329Z,17.20
2018-05-23T02:41:17.637Z,17.00
2018-05-23T02:43:45.206Z,17.20
2018-05-23T02:46:18.437Z,17.20
2018-05-23T02:48:45.983Z,17.20
2018-05-23T02:51:13.586Z,17.30
2018-05-23T02:53:41.182Z,17.30
2018-05-23T02:56:08.754Z,17.40
2018-05-23T02:58:36.346Z,17.40
2018-05-23T03:01:04.453Z,17.40
2018-05-23T03:03:31.996Z,17.30
2018-05-23T03:06:00.463Z,17.30
2018-05-23T03:08:27.999Z,17.30
2018-05-23T03:10:55.570Z,17.30
2018-05-23T03:13:24.017Z,17.40
2018-05-23T03:15:51.597Z,17.50
2018-05-23T03:18:19.131Z,17.40
2018-05-23T03:20:46.688Z,17.30
2018-05-23T03:23:14.210Z,17.40
2018-05-23T03:25:42.526Z,17.40
2018-05-23T03:28:10.109Z,17.30
2018-05-23T03:30:37.640Z,17.30
2018-05-23T03:33:05.207Z,17.30
2018-05-23T03:35:32.743Z,17.20
2018-05-23T03:38:01.751Z,17.30
2018-05-23T03:40:29.285Z,17.30
2018-05-23T03:42:57.611Z,17.30
2018-05-23T03:45:25.168Z,17.30
2018-05-23T03:47:52.800Z,17.20
2018-05-23T03:50:20.367Z,17.20
2018-05-23T03:52:47.905Z,17.20
2018-05-23T03:55:16.527Z,17.10
2018-05-23T03:57:44.813Z,17.10
2018-05-23T04:00:24.128Z,17.00
2018-05-23T04:03:03.484Z,17.10
2018-05-23T04:05:43.498Z,17.10
2018-05-23T04:08:11.977Z,17.00
2018-05-23T04:10:40.443Z,17.00
2018-05-23T04:13:08.844Z,17.10
2018-05-23T04:15:36.418Z,17.10
2018-05-23T04:18:03.961Z,17.10
2018-05-23T04:20:32.281Z,17.30
2018-05-23T04:22:59.916Z,17.20
2018-05-23T04:25:27.499Z,17.20
2018-05-23T04:27:56.118Z,17.30
2018-05-23T04:30:24.433Z,17.50
2018-05-23T04:32:51.999Z,17.40
2018-05-23T04:35:19.532Z,17.60
2018-05-23T04:37:47.088Z,17.80
2018-05-23T04:40:14.619Z,17.90
2018-05-23T04:42:42.219Z,17.90
2018-05-23T04:45:10.519Z,18.00
2018-05-23T04:47:38.113Z,18.00
2018-05-23T04:50:05.674Z,18.00
2018-05-23T04:52:33.222Z,18.00
2018-05-23T04:55:00.811Z,18.00
2018-05-23T04:57:28.411Z,18.00
2018-05-23T04:59:56.079Z,18.10
2018-05-23T05:02:23.621Z,18.00
2018-05-23T05:04:51.943Z,18.20
2018-05-23T05:07:19.487Z,18.10
2018-05-23T05:09:47.064Z,18.10
2018-05-23T05:12:14.722Z,18.10
2018-05-23T05:14:42.292Z,18.10
2018-05-23T05:17:09.806Z,18.20
2018-05-23T05:19:38.448Z,18.30
2018-05-23T05:22:05.984Z,18.30
2018-05-23T05:24:33.529Z,18.40
2018-05-23T05:27:03.252Z,18.40
2018-05-23T05:29:30.842Z,18.50
2018-05-23T05:31:58.437Z,18.50
2018-05-23T05:34:25.986Z,18.50
2018-05-23T05:36:53.625Z,18.60
2018-05-23T05:39:21.173Z,18.70
2018-05-23T05:41:48.749Z,18.70
2018-05-23T05:44:16.375Z,18.70
2018-05-23T05:46:43.994Z,18.80
2018-05-23T05:49:12.147Z,18.80
2018-05-23T05:51:39.928Z,18.90
2018-05-23T05:54:07.713Z,19.00
2018-05-23T05:56:35.283Z,19.00
2018-05-23T05:59:05.262Z,19.00
2018-05-23T06:01:32.806Z,19.20
2018-05-23T06:04:00.356Z,19.30
2018-05-23T06:06:27.926Z,19.50
2018-05-23T06:08:55.527Z,19.60
2018-05-23T06:11:24.800Z,19.80
2018-05-23T06:13:52.461Z,19.70
2018-05-23T06:16:20.055Z,19.70
2018-05-23T06:18:48.383Z,19.90
2018-05-23T06:21:16.396Z,19.90
2018-05-23T06:23:45.474Z,20.20
2018-05-23T06:26:13.861Z,20.30
2018-05-23T06:28:41.392Z,20.20
2018-05-23T06:31:09.386Z,20.40
2018-05-23T06:33:36.954Z,20.50
2018-05-23T06:36:04.541Z,20.40
2018-05-23T06:38:32.127Z,20.50
2018-05-23T06:40:59.712Z,20.50
2018-05-23T06:43:27.374Z,20.60
2018-05-23T06:45:55.608Z,20.80
2018-05-23T06:48:23.199Z,20.80
2018-05-23T06:50:50.737Z,21.00
2018-05-23T06:53:18.382Z,21.20
2018-05-23T06:55:45.920Z,21.30
2018-05-23T06:58:13.470Z,21.30
2018-05-23T07:00:41.029Z,21.40
2018-05-23T07:03:08.669Z,21.50
2018-05-23T07:05:36.323Z,21.60
2018-05-23T07:08:04.935Z,21.70
2018-05-23T07:10:32.492Z,21.80
2018-05-23T07:13:00.021Z,22.00
2018-05-23T07:15:27.598Z,22.20
2018-05-23T07:17:55.121Z,22.30
2018-05-23T07:20:22.727Z,22.40
2018-05-23T07:22:51.120Z,22.70
2018-05-23T07:25:18.664Z,22.80
2018-05-23T07:27:46.255Z,22.80
2018-05-23T07:30:13.801Z,22.80
2018-05-23T07:32:41.450Z,22.90
2018-05-23T07:35:09.085Z,23.00
2018-05-23T07:37:36.679Z,23.00
2018-05-23T07:40:04.340Z,23.00
2018-05-23T07:42:31.918Z,22.90
2018-05-23T07:44:59.486Z,22.90
2018-05-23T07:47:27.830Z,23.10
2018-05-23T07:49:55.375Z,23.00
2018-05-23T07:52:23.046Z,23.10
2018-05-23T07:54:50.710Z,23.20
2018-05-23T07:57:20.046Z,23.20
2018-05-23T07:59:47.646Z,23.40
2018-05-23T08:02:15.200Z,23.40
2018-05-23T08:04:42.774Z,23.60
2018-05-23T08:07:10.299Z,23.60
2018-05-23T08:09:37.870Z,23.60
2018-05-23T08:12:05.421Z,23.60
2018-05-23T08:14:33.759Z,23.60
2018-05-23T08:17:01.305Z,23.60
2018-05-23T08:19:28.903Z,23.70
2018-05-23T08:21:56.535Z,23.70
2018-05-23T08:24:24.470Z,23.90
2018-05-23T08:26:52.031Z,24.90
2018-05-23T08:29:19.611Z,26.50
2018-05-23T08:31:47.183Z,28.00
2018-05-23T08:34:14.842Z,29.30
2018-05-23T08:36:42.432Z,30.10
2018-05-23T08:39:09.963Z,30.40
2018-05-23T08:41:37.923Z,30.70
2018-05-23T08:44:05.587Z,30.50
2018-05-23T08:46:33.265Z,30.20
2018-05-23T08:49:00.847Z,30.60
2018-05-23T08:51:28.371Z,30.60
2018-05-23T08:53:56.047Z,30.40
2018-05-23T08:56:23.629Z,30.10
2018-05-23T08:58:51.342Z,29.30
2018-05-23T09:01:18.933Z,29.10
2018-05-23T09:03:46.545Z,29.30
2018-05-23T09:06:15.669Z,29.20
2018-05-23T09:08:43.198Z,29.20
2018-05-23T09:11:11.535Z,28.50
2018-05-23T09:13:39.228Z,28.50
2018-05-23T09:16:06.759Z,28.30
2018-05-23T09:18:34.436Z,28.60
2018-05-23T09:21:01.989Z,29.10
2018-05-23T09:23:30.490Z,29.40
2018-05-23T09:25:58.076Z,29.60
2018-05-23T09:28:25.649Z,30.60
2018-05-23T09:30:53.250Z,31.60
2018-05-23T09:33:20.795Z,32.70
2018-05-23T09:35:48.466Z,33.50
2018-05-23T09:38:16.024Z,34.10
2018-05-23T09:40:43.588Z,33.90
2018-05-23T09:43:11.206Z,34.20
2018-05-23T09:45:38.759Z,34.50
2018-05-23T09:48:06.405Z,34.60
2018-05-23T09:50:34.704Z,34.40
2018-05-23T09:53:02.658Z,34.30
2018-05-23T09:55:31.080Z,35.70
2018-05-23T09:57:58.692Z,35.80
2018-05-23T10:00:27.086Z,37.50
2018-05-23T10:02:54.767Z,37.40
2018-05-23T10:05:22.377Z,38.10
2018-05-23T10:07:50.018Z,37.90
2018-05-23T10:10:17.813Z,37.30
2018-05-23T10:12:45.469Z,37.40
2018-05-23T10:15:13.279Z,36.90
2018-05-23T10:17:41.018Z,36.50
2018-05-23T10:20:08.763Z,36.70
2018-05-23T10:22:36.292Z,36.60
2018-05-23T10:25:03.868Z,36.00
2018-05-23T10:27:31.452Z,34.60
2018-05-23T10:29:59.033Z,33.10
2018-05-23T10:32:27.597Z,30.60
2018-05-23T10:34:55.908Z,31.40
2018-05-23T10:37:23.470Z,31.40
2018-05-23T10:39:51.501Z,32.20
2018-05-23T10:42:19.080Z,32.00
2018-05-23T10:44:47.432Z,32.30
2018-05-23T10:47:15.046Z,32.30
2018-05-23T10:49:42.633Z,32.20
2018-05-23T10:52:10.337Z,31.80
2018-05-23T10:54:37.911Z,30.80
2018-05-23T10:57:06.300Z,31.50
2018-05-23T10:59:33.828Z,31.50
2018-05-23T11:02:01.808Z,32.20
2018-05-23T11:04:30.489Z,32.50
2018-05-23T11:06:58.800Z,31.90
2018-05-23T11:09:26.462Z,31.90
2018-05-23T11:11:54.130Z,31.70
2018-05-23T11:14:21.845Z,30.40
2018-05-23T11:16:50.215Z,29.40
2018-05-23T11:19:17.981Z,29.30
2018-05-23T11:21:45.543Z,28.60
2018-05-23T11:24:13.094Z,28.00
2018-05-23T11:26:40.670Z,27.50
2018-05-23T11:29:08.331Z,26.70
2018-05-23T11:31:35.959Z,26.50
2018-05-23T11:34:04.451Z,26.40
2018-05-23T11:36:32.090Z,26.40
2018-05-23T11:38:59.733Z,26.40
2018-05-23T11:41:28.069Z,26.20
2018-05-23T11:43:55.643Z,26.20
2018-05-23T11:46:23.329Z,26.00
2018-05-23T11:48:51.088Z,25.90
2018-05-23T11:51:19.440Z,26.10
2018-05-23T11:53:47.015Z,26.10
2018-05-23T11:56:14.635Z,26.20
2018-05-23T11:58:42.272Z,25.80
2018-05-23T12:01:09.888Z,25.60
2018-05-23T12:03:37.450Z,25.50
2018-05-23T12:06:05.096Z,25.10
2018-05-23T12:08:32.694Z,25.20
2018-05-23T12:11:02.919Z,24.90
2018-05-23T12:13:30.468Z,24.80
2018-05-23T12:15:58.839Z,25.00
2018-05-23T12:18:26.380Z,25.00
2018-05-23T12:20:53.960Z,24.90
2018-05-23T12:23:21.654Z,24.90
2018-05-23T12:25:49.996Z,25.10
2018-05-23T12:28:17.701Z,25.00
2018-05-23T12:30:45.306Z,25.10
2018-05-23T12:33:12.904Z,25.00
2018-05-23T12:35:40.508Z,24.70
2018-05-23T12:38:08.090Z,24.70
2018-05-23T12:40:35.690Z,24.80
2018-05-23T12:43:03.242Z,24.80
2018-05-23T12:45:30.836Z,24.80
2018-05-23T12:47:58.406Z,24.70
2018-05-23T12:50:26.496Z,24.80
2018-05-23T12:52:54.786Z,24.90
2018-05-23T12:55:22.377Z,24.90
2018-05-23T12:57:51.018Z,24.70
2018-05-23T13:00:18.619Z,24.70
2018-05-23T13:02:46.181Z,24.80
2018-05-23T13:05:13.770Z,24.80
2018-05-23T13:07:41.327Z,24.60
2018-05-23T13:10:09.089Z,24.60
2018-05-23T13:12:36.707Z,24.80
2018-05-23T13:15:04.479Z,25.00
2018-05-23T13:17:32.038Z,24.90
2018-05-23T13:19:59.664Z,25.10
2018-05-23T13:22:27.270Z,25.00
2018-05-23T13:24:54.876Z,25.10
2018-05-23T13:27:22.591Z,24.90
2018-05-23T13:29:50.238Z,24.90
2018-05-23T13:32:17.809Z,25.00
2018-05-23T13:34:45.445Z,25.00
2018-05-23T13:37:13.045Z,25.00
2018-05-23T13:39:40.768Z,24.80
2018-05-23T13:42:08.356Z,24.80
2018-05-23T13:44:35.917Z,25.00
2018-05-23T13:47:03.654Z,25.00
2018-05-23T13:49:31.274Z,25.10
2018-05-23T13:51:58.851Z,25.10
2018-05-23T13:54:26.412Z,25.00
2018-05-23T13:56:53.985Z,25.10
2018-05-23T13:59:21.566Z,25.30
2018-05-23T14:01:49.172Z,25.30
2018-05-23T14:04:17.111Z,25.30
2018-05-23T14:06:44.781Z,25.10
2018-05-23T14:09:12.479Z,25.10
2018-05-23T14:11:40.108Z,25.20
2018-05-23T14:14:07.690Z,24.80
2018-05-23T14:16:35.291Z,24.70
2018-05-23T14:19:03.475Z,24.70
2018-05-23T14:21:31.318Z,24.80
2018-05-23T14:23:58.915Z,24.90
2018-05-23T14:26:26.485Z,24.90
2018-05-23T14:28:54.181Z,25.00
2018-05-23T14:31:21.854Z,25.10
2018-05-23T14:33:49.451Z,25.20
2018-05-23T14:36:17.021Z,25.10
2018-05-23T14:38:44.607Z,25.20
2018-05-23T14:41:12.145Z,25.30
2018-05-23T14:43:39.837Z,25.30
2018-05-23T14:46:07.364Z,25.30
2018-05-23T14:48:34.917Z,25.00
2018-05-23T14:51:05.865Z,24.90
2018-05-23T14:53:32.913Z,24.70
2018-05-23T14:55:59.950Z,24.70
2018-05-23T14:58:27.096Z,24.70
2018-05-23T15:00:54.171Z,24.70
2018-05-23T15:03:21.259Z,24.70
2018-05-23T15:05:48.350Z,24.70
2018-05-23T15:08:15.426Z,24.60
2018-05-23T15:10:43.774Z,24.40
2018-05-23T15:13:11.316Z,24.40
2018-05-23T15:15:38.868Z,24.30
2018-05-23T15:18:06.562Z,24.20
2018-05-23T15:20:34.143Z,24.30
2018-05-23T15:23:01.681Z,24.20
2018-05-23T15:25:29.222Z,24.30
2018-05-23T15:27:56.800Z,24.30
2018-05-23T15:30:24.395Z,24.30
2018-05-23T15:32:52.251Z,24.20
2018-05-23T15:35:19.829Z,24.20
2018-05-23T15:37:47.436Z,24.20
2018-05-23T15:40:15.043Z,24.10
2018-05-23T15:42:43.398Z,24.00
2018-05-23T15:45:11.042Z,24.00
2018-05-23T15:47:38.632Z,24.00
2018-05-23T15:50:06.231Z,24.00
2018-05-23T15:52:34.070Z,23.90
2018-05-23T15:55:01.682Z,24.00
2018-05-23T15:57:29.258Z,24.00
2018-05-23T15:59:56.840Z,24.20
2018-05-23T16:02:24.385Z,24.20
2018-05-23T16:04:51.935Z,24.30
2018-05-23T16:07:20.462Z,24.30
2018-05-23T16:09:48.060Z,24.40
2018-05-23T16:12:15.705Z,24.20
2018-05-23T16:14:43.359Z,24.20
2018-05-23T16:17:11.023Z,24.10
2018-05-23T16:19:39.498Z,24.30
2018-05-23T16:22:07.975Z,24.30
2018-05-23T16:24:35.599Z,24.20
2018-05-23T16:27:03.555Z,24.10
2018-05-23T16:29:31.148Z,24.20
2018-05-23T16:31:58.692Z,24.20
2018-05-23T16:34:26.261Z,24.00
2018-05-23T16:36:53.863Z,23.90
2018-05-23T16:39:21.466Z,24.00
2018-05-23T16:41:49.030Z,24.00
2018-05-23T16:44:17.746Z,24.10
2018-05-23T16:46:45.291Z,24.10
2018-05-23T16:49:12.937Z,24.10
2018-05-23T16:51:40.636Z,24.00
2018-05-23T16:54:09.084Z,23.90
2018-05-23T16:56:36.755Z,23.90
2018-05-23T16:59:05.083Z,24.10
2018-05-23T17:01:33.767Z,24.00
2018-05-23T17:04:01.396Z,24.00
2018-05-23T17:06:29.120Z,24.10
2018-05-23T17:08:57.531Z,24.30
2018-05-23T17:11:25.372Z,24.30
2018-05-23T17:13:53.019Z,24.30
2018-05-23T17:16:20.831Z,24.20
2018-05-23T17:18:48.539Z,24.20
2018-05-23T17:21:16.973Z,24.00
2018-05-23T17:23:44.514Z,24.00
2018-05-23T17:26:12.072Z,24.00
2018-05-23T17:28:39.606Z,24.00
2018-05-23T17:31:07.221Z,24.00
2018-05-23T17:33:34.819Z,23.90
2018-05-23T17:36:05.900Z,24.00
2018-05-23T17:38:33.468Z,24.00
2018-05-23T17:41:05.030Z,24.00
2018-05-23T17:43:32.686Z,24.10
2018-05-23T17:46:00.319Z,24.10
2018-05-23T17:48:27.965Z,24.10
2018-05-23T17:50:56.343Z,24.20
2018-05-23T17:53:24.200Z,24.20
2018-05-23T17:55:52.597Z,24.20
2018-05-23T17:58:20.302Z,24.10
2018-05-23T18:00:47.971Z,24.20
2018-05-23T18:03:16.099Z,24.20
2018-05-23T18:05:43.663Z,24.10
2018-05-23T18:08:11.243Z,24.10
2018-05-23T18:10:39.043Z,24.10
2018-05-23T18:13:06.714Z,24.00
2018-05-23T18:15:34.244Z,24.00
2018-05-23T18:18:03.359Z,24.00
2018-05-23T18:20:31.078Z,23.90
2018-05-23T18:22:58.650Z,23.80
2018-05-23T18:25:26.256Z,23.80
2018-05-23T18:27:53.883Z,23.60
2018-05-23T18:30:21.873Z,23.30
2018-05-23T18:32:50.573Z,22.90
2018-05-23T18:35:18.102Z,22.60
2018-05-23T18:37:45.686Z,22.20
2018-05-23T18:40:15.111Z,21.50
2018-05-23T18:42:43.756Z,21.40
2018-05-23T18:45:11.303Z,21.40
2018-05-23T18:47:38.874Z,21.10
2018-05-23T18:50:06.533Z,20.30
2018-05-23T18:52:34.172Z,19.70
2018-05-23T18:55:05.283Z,19.20
2018-05-23T18:57:33.688Z,18.90
2018-05-23T19:00:01.576Z,18.60
2018-05-23T19:02:29.288Z,18.40
2018-05-23T19:04:58.758Z,18.30
2018-05-23T19:07:26.416Z,18.20
2018-05-23T19:09:54.175Z,18.20
2018-05-23T19:12:22.795Z,18.20
2018-05-23T19:14:51.273Z,18.30
2018-05-23T19:17:18.920Z,18.20
2018-05-23T19:19:46.762Z,18.10
2018-05-23T19:22:15.358Z,18.20
2018-05-23T19:29:48.629Z,17.80
2018-05-23T19:32:16.847Z,17.60
2018-05-23T19:34:45.186Z,17.70
2018-05-23T19:37:12.841Z,17.60
2018-05-23T19:39:40.680Z,17.70
2018-05-23T19:42:08.250Z,17.70
2018-05-23T19:44:35.961Z,17.70
2018-05-23T19:47:06.585Z,17.80
2018-05-23T19:49:34.214Z,17.90
2018-05-23T19:52:03.313Z,17.90
2018-05-23T19:54:30.937Z,18.00
2018-05-23T19:56:58.515Z,18.10
2018-05-23T19:59:26.924Z,18.10
2018-05-23T20:01:54.702Z,18.00
2018-05-23T20:04:22.698Z,18.10
2018-05-23T20:06:50.289Z,18.10
2018-05-23T20:09:18.778Z,18.00
2018-05-23T20:11:47.382Z,17.80
2018-05-23T20:14:15.339Z,17.80
2018-05-23T20:16:43.604Z,17.80
2018-05-23T20:19:13.358Z,17.90
2018-05-23T20:21:40.991Z,17.80
2018-05-23T20:24:08.920Z,17.90
2018-05-23T20:26:36.526Z,18.00
2018-05-23T20:29:04.101Z,18.00
2018-05-23T20:31:31.755Z,18.00
2018-05-23T20:33:59.376Z,18.00
2018-05-23T20:36:26.994Z,18.10
2018-05-23T20:38:55.548Z,18.10
2018-05-23T20:41:23.452Z,17.90
2018-05-23T20:43:51.084Z,18.00
2018-05-23T20:46:18.783Z,18.10
2018-05-23T20:48:46.387Z,18.10
2018-05-23T20:51:14.275Z,18.10
2018-05-23T20:53:41.909Z,18.10
2018-05-23T20:56:10.301Z,18.20
2018-05-23T20:58:38.199Z,18.20
2018-05-23T21:01:05.736Z,18.20
2018-05-23T21:03:33.520Z,18.30
2018-05-23T21:06:01.645Z,18.10
2018-05-23T21:08:29.233Z,18.10
2018-05-23T21:10:56.929Z,18.10
2018-05-23T21:13:25.341Z,18.20
2018-05-23T21:15:52.942Z,18.20
2018-05-23T21:18:20.750Z,18.20
2018-05-23T21:20:48.373Z,18.20
2018-05-23T21:23:16.072Z,18.20
2018-05-23T21:25:43.691Z,18.20
2018-05-23T21:28:11.380Z,18.20
2018-05-23T21:30:39.728Z,18.10
2018-05-23T21:33:07.314Z,18.10
2018-05-23T21:35:34.963Z,18.00
2018-05-23T21:38:03.736Z,18.00
2018-05-23T21:40:31.321Z,18.00
2018-05-23T21:42:58.982Z,18.00
2018-05-23T21:45:26.752Z,18.00
2018-05-23T21:47:54.362Z,18.10
2018-05-23T21:50:22.149Z,18.10
2018-05-23T21:52:49.753Z,18.20
2018-05-23T21:55:17.340Z,18.20
2018-05-23T21:57:45.977Z,18.20
2018-05-23T22:00:13.614Z,18.20
2018-05-23T22:02:41.985Z,18.10
2018-05-23T22:05:10.390Z,18.20
2018-05-23T22:07:38.028Z,18.20
2018-05-23T22:10:06.456Z,18.10
2018-05-23T22:12:34.059Z,18.00
2018-05-23T22:18:04.810Z,18.10
2018-05-23T22:20:32.513Z,18.20
2018-05-23T22:23:00.034Z,18.20
2018-05-23T22:25:27.672Z,18.10
2018-05-23T22:27:55.372Z,18.10
2018-05-23T22:30:22.931Z,18.10
2018-05-23T22:32:50.547Z,18.10
2018-05-23T22:35:18.123Z,18.20
2018-05-23T22:37:45.932Z,18.10
2018-05-23T22:40:13.526Z,18.20
2018-05-23T22:42:41.077Z,18.20
2018-05-23T22:45:08.811Z,18.20
2018-05-23T22:47:36.438Z,18.10
2018-05-23T22:50:04.531Z,18.10
2018-05-23T22:52:32.401Z,18.10
2018-05-23T22:54:59.960Z,18.10
2018-05-23T22:57:27.538Z,18.10
2018-05-23T22:59:55.065Z,18.10
2018-05-23T23:02:22.653Z,18.00
2018-05-23T23:04:50.203Z,18.10
2018-05-23T23:07:17.860Z,18.00
2018-05-23T23:09:45.524Z,17.90
2018-05-23T23:12:13.130Z,17.90
2018-05-23T23:14:40.800Z,18.00
2018-05-23T23:17:08.448Z,17.90
2018-05-23T23:19:36.063Z,17.80
2018-05-23T23:22:03.729Z,17.90
2018-05-23T23:24:31.415Z,17.90
2018-05-23T23:26:59.035Z,17.90
2018-05-23T23:29:26.625Z,17.90
2018-05-23T23:31:54.268Z,17.90
2018-05-23T23:34:21.892Z,18.00
2018-05-23T23:36:49.507Z,17.90
2018-05-23T23:39:17.209Z,17.80
2018-05-23T23:41:44.791Z,17.80
2018-05-23T23:44:12.457Z,17.80
2018-05-23T23:46:40.200Z,17.80
2018-05-23T23:49:07.881Z,17.90
2018-05-23T23:51:35.575Z,17.80
2018-05-23T23:54:04.268Z,17.80
2018-05-23T23:56:31.956Z,17.90
2018-05-23T23:58:59.681Z,17.90
